sensor_id;sensor_type;location;lat;lon;timestamp;temperature;humidity
21193;DHT22;10754;51.106;7.164;2023-04-01T00:01:24;13.80;1.00
21193;DHT22;10754;51.106;7.164;2023-04-01T00:03:50;13.70;1.00
21193;DHT22;10754;51.106;7.164;2023-04-01T00:06:17;13.50;1.00
21193;DHT22;10754;51.106;7.164;2023-04-01T00:08:43;13.40;1.00
21193;DHT22;10754;51.106;7.164;2023-04-01T00:11:10;13.50;1.00
21193;DHT22;10754;51.106;7.164;2023-04-01T00:13:36;13.30;1.00
21193;DHT22;10754;51.106;7.164;2023-04-01T00:16:01;13.40;1.00
21193;DHT22;10754;51.106;7.164;2023-04-01T00:18:28;13.20;1.00
21193;DHT22;10754;51.106;7.164;2023-04-01T00:20:53;13.30;1.00
21193;DHT22;10754;51.106;7.164;2023-04-01T00:23:19;13.80;1.00
21193;DHT22;10754;51.106;7.164;2023-04-01T00:25:46;14.00;1.00
21193;DHT22;10754;51.106;7.164;2023-04-01T00:28:15;13.70;1.00
21193;DHT22;10754;51.106;7.164;2023-04-01T00:30:41;14.10;1.00
21193;DHT22;10754;51.106;7.164;2023-04-01T00:33:06;14.00;1.00
21193;DHT22;10754;51.106;7.164;2023-04-01T00:35:32;14.00;1.00
21193;DHT22;10754;51.106;7.164;2023-04-01T00:37:58;13.60;1.00
21193;DHT22;10754;51.106;7.164;2023-04-01T00:40:37;13.90;1.00
21193;DHT22;10754;51.106;7.164;2023-04-01T00:43:05;13.70;1.00
21193;DHT22;10754;51.106;7.164;2023-04-01T00:45:36;13.50;1.00
21193;DHT22;10754;51.106;7.164;2023-04-01T00:48:23;13.80;1.00
21193;DHT22;10754;51.106;7.164;2023-04-01T00:50:57;13.70;1.00
21193;DHT22;10754;51.106;7.164;2023-04-01T00:53:23;13.50;1.00
21193;DHT22;10754;51.106;7.164;2023-04-01T00:56:02;13.80;1.00
21193;DHT22;10754;51.106;7.164;2023-04-01T00:58:31;13.70;1.00
21193;DHT22;10754;51.106;7.164;2023-04-01T01:00:59;13.80;1.00
21193;DHT22;10754;51.106;7.164;2023-04-01T01:03:26;13.80;1.00
21193;DHT22;10754;51.106;7.164;2023-04-01T01:06:07;13.50;1.00
21193;DHT22;10754;51.106;7.164;2023-04-01T01:11:14;14.40;1.00
21193;DHT22;10754;51.106;7.164;2023-04-01T01:14:21;13.70;1.00
21193;DHT22;10754;51.106;7.164;2023-04-01T01:16:58;13.80;1.00
21193;DHT22;10754;51.106;7.164;2023-04-01T01:19:51;13.90;1.00
21193;DHT22;10754;51.106;7.164;2023-04-01T01:25:09;13.90;1.00
21193;DHT22;10754;51.106;7.164;2023-04-01T01:27:40;13.90;1.00
21193;DHT22;10754;51.106;7.164;2023-04-01T01:33:08;13.90;1.00
21193;DHT22;10754;51.106;7.164;2023-04-01T01:35:50;13.70;1.00
21193;DHT22;10754;51.106;7.164;2023-04-01T01:38:20;13.60;1.00
21193;DHT22;10754;51.106;7.164;2023-04-01T01:40:49;13.90;1.00
21193;DHT22;10754;51.106;7.164;2023-04-01T01:43:22;13.80;1.00
21193;DHT22;10754;51.106;7.164;2023-04-01T01:45:52;13.80;1.00
21193;DHT22;10754;51.106;7.164;2023-04-01T01:48:19;13.40;1.00
21193;DHT22;10754;51.106;7.164;2023-04-01T01:50:46;13.60;1.00
21193;DHT22;10754;51.106;7.164;2023-04-01T01:53:13;13.80;1.00
21193;DHT22;10754;51.106;7.164;2023-04-01T01:55:42;13.80;1.00
21193;DHT22;10754;51.106;7.164;2023-04-01T01:58:18;13.60;1.00
21193;DHT22;10754;51.106;7.164;2023-04-01T02:00:50;13.50;1.00
21193;DHT22;10754;51.106;7.164;2023-04-01T02:03:17;13.50;1.00
21193;DHT22;10754;51.106;7.164;2023-04-01T02:05:45;13.60;1.00
21193;DHT22;10754;51.106;7.164;2023-04-01T02:08:18;13.70;1.00
21193;DHT22;10754;51.106;7.164;2023-04-01T02:10:55;13.70;1.00
21193;DHT22;10754;51.106;7.164;2023-04-01T02:13:31;13.70;1.00
21193;DHT22;10754;51.106;7.164;2023-04-01T02:16:02;13.80;1.00
21193;DHT22;10754;51.106;7.164;2023-04-01T02:18:34;13.70;1.00
21193;DHT22;10754;51.106;7.164;2023-04-01T02:21:02;13.70;1.00
21193;DHT22;10754;51.106;7.164;2023-04-01T02:23:31;13.80;1.00
21193;DHT22;10754;51.106;7.164;2023-04-01T02:25:58;13.50;1.00
21193;DHT22;10754;51.106;7.164;2023-04-01T02:28:25;13.50;1.00
21193;DHT22;10754;51.106;7.164;2023-04-01T02:30:51;13.50;1.00
21193;DHT22;10754;51.106;7.164;2023-04-01T02:33:18;13.40;1.00
21193;DHT22;10754;51.106;7.164;2023-04-01T02:35:45;13.50;1.00
21193;DHT22;10754;51.106;7.164;2023-04-01T02:38:10;13.30;1.00
21193;DHT22;10754;51.106;7.164;2023-04-01T02:40:46;13.10;1.00
21193;DHT22;10754;51.106;7.164;2023-04-01T02:43:12;13.10;1.00
21193;DHT22;10754;51.106;7.164;2023-04-01T02:45:37;13.20;1.00
21193;DHT22;10754;51.106;7.164;2023-04-01T02:48:03;13.00;1.00
21193;DHT22;10754;51.106;7.164;2023-04-01T02:50:29;13.00;1.00
21193;DHT22;10754;51.106;7.164;2023-04-01T02:52:54;13.20;1.00
21193;DHT22;10754;51.106;7.164;2023-04-01T02:55:21;13.10;1.00
21193;DHT22;10754;51.106;7.164;2023-04-01T02:57:46;13.00;1.00
21193;DHT22;10754;51.106;7.164;2023-04-01T03:00:12;12.90;1.00
21193;DHT22;10754;51.106;7.164;2023-04-01T03:02:38;12.70;1.00
21193;DHT22;10754;51.106;7.164;2023-04-01T03:05:05;12.90;1.00
21193;DHT22;10754;51.106;7.164;2023-04-01T03:07:31;12.80;1.00
21193;DHT22;10754;51.106;7.164;2023-04-01T03:09:56;12.70;1.00
21193;DHT22;10754;51.106;7.164;2023-04-01T03:12:22;12.70;1.00
21193;DHT22;10754;51.106;7.164;2023-04-01T03:14:47;12.70;1.00
21193;DHT22;10754;51.106;7.164;2023-04-01T03:17:13;12.90;1.00
21193;DHT22;10754;51.106;7.164;2023-04-01T03:19:38;12.90;1.00
21193;DHT22;10754;51.106;7.164;2023-04-01T03:22:04;12.90;1.00
21193;DHT22;10754;51.106;7.164;2023-04-01T03:24:29;13.10;1.00
21193;DHT22;10754;51.106;7.164;2023-04-01T03:26:55;13.20;1.00
21193;DHT22;10754;51.106;7.164;2023-04-01T03:29:20;12.80;1.00
21193;DHT22;10754;51.106;7.164;2023-04-01T03:31:46;12.80;1.00
21193;DHT22;10754;51.106;7.164;2023-04-01T03:34:12;12.80;1.00
21193;DHT22;10754;51.106;7.164;2023-04-01T03:36:37;12.60;1.00
21193;DHT22;10754;51.106;7.164;2023-04-01T03:39:03;12.60;1.00
21193;DHT22;10754;51.106;7.164;2023-04-01T03:41:29;12.70;1.00
21193;DHT22;10754;51.106;7.164;2023-04-01T03:43:55;12.90;1.00
21193;DHT22;10754;51.106;7.164;2023-04-01T03:46:21;13.00;1.00
21193;DHT22;10754;51.106;7.164;2023-04-01T03:48:46;13.30;1.00
21193;DHT22;10754;51.106;7.164;2023-04-01T03:51:12;13.20;1.00
21193;DHT22;10754;51.106;7.164;2023-04-01T03:53:38;12.80;1.00
21193;DHT22;10754;51.106;7.164;2023-04-01T03:56:04;12.80;1.00
21193;DHT22;10754;51.106;7.164;2023-04-01T03:58:30;12.80;1.00
21193;DHT22;10754;51.106;7.164;2023-04-01T04:00:56;12.80;1.00
21193;DHT22;10754;51.106;7.164;2023-04-01T04:03:21;12.80;1.00
21193;DHT22;10754;51.106;7.164;2023-04-01T04:05:48;12.80;1.00
21193;DHT22;10754;51.106;7.164;2023-04-01T04:08:14;12.70;1.00
21193;DHT22;10754;51.106;7.164;2023-04-01T04:10:39;12.90;1.00
21193;DHT22;10754;51.106;7.164;2023-04-01T04:13:05;12.80;1.00
21193;DHT22;10754;51.106;7.164;2023-04-01T04:15:30;12.60;1.00
21193;DHT22;10754;51.106;7.164;2023-04-01T04:17:56;12.70;1.00
21193;DHT22;10754;51.106;7.164;2023-04-01T04:20:21;12.80;1.00
21193;DHT22;10754;51.106;7.164;2023-04-01T04:22:47;12.60;1.00
21193;DHT22;10754;51.106;7.164;2023-04-01T04:25:12;12.60;1.00
21193;DHT22;10754;51.106;7.164;2023-04-01T04:27:38;12.40;1.00
21193;DHT22;10754;51.106;7.164;2023-04-01T04:30:05;12.60;1.00
21193;DHT22;10754;51.106;7.164;2023-04-01T04:32:31;12.60;1.00
21193;DHT22;10754;51.106;7.164;2023-04-01T04:34:56;12.80;1.00
21193;DHT22;10754;51.106;7.164;2023-04-01T04:37:21;12.60;1.00
21193;DHT22;10754;51.106;7.164;2023-04-01T04:39:47;12.60;1.00
21193;DHT22;10754;51.106;7.164;2023-04-01T04:42:12;12.70;1.00
21193;DHT22;10754;51.106;7.164;2023-04-01T04:44:39;12.70;1.00
21193;DHT22;10754;51.106;7.164;2023-04-01T04:47:04;12.80;1.00
21193;DHT22;10754;51.106;7.164;2023-04-01T04:49:30;13.00;1.00
21193;DHT22;10754;51.106;7.164;2023-04-01T04:51:56;13.10;1.00
21193;DHT22;10754;51.106;7.164;2023-04-01T04:54:21;13.10;1.00
21193;DHT22;10754;51.106;7.164;2023-04-01T04:56:47;13.00;1.00
21193;DHT22;10754;51.106;7.164;2023-04-01T04:59:12;13.10;1.00
21193;DHT22;10754;51.106;7.164;2023-04-01T05:01:38;13.10;1.00
21193;DHT22;10754;51.106;7.164;2023-04-01T05:04:03;12.90;1.00
21193;DHT22;10754;51.106;7.164;2023-04-01T05:06:29;12.70;1.00
21193;DHT22;10754;51.106;7.164;2023-04-01T05:08:56;13.10;1.00
21193;DHT22;10754;51.106;7.164;2023-04-01T05:11:22;13.00;1.00
21193;DHT22;10754;51.106;7.164;2023-04-01T05:13:47;13.10;1.00
21193;DHT22;10754;51.106;7.164;2023-04-01T05:16:15;13.00;1.00
21193;DHT22;10754;51.106;7.164;2023-04-01T05:18:41;13.30;1.00
21193;DHT22;10754;51.106;7.164;2023-04-01T05:21:09;13.00;1.00
21193;DHT22;10754;51.106;7.164;2023-04-01T05:23:35;13.10;1.00
21193;DHT22;10754;51.106;7.164;2023-04-01T05:26:05;12.90;1.00
21193;DHT22;10754;51.106;7.164;2023-04-01T05:28:30;12.90;1.00
21193;DHT22;10754;51.106;7.164;2023-04-01T05:30:59;13.50;1.00
21193;DHT22;10754;51.106;7.164;2023-04-01T05:33:25;13.20;1.00
21193;DHT22;10754;51.106;7.164;2023-04-01T05:35:52;13.30;1.00
21193;DHT22;10754;51.106;7.164;2023-04-01T05:38:18;13.00;1.00
21193;DHT22;10754;51.106;7.164;2023-04-01T05:40:43;13.30;1.00
21193;DHT22;10754;51.106;7.164;2023-04-01T05:43:09;13.40;1.00
21193;DHT22;10754;51.106;7.164;2023-04-01T05:45:35;13.10;1.00
21193;DHT22;10754;51.106;7.164;2023-04-01T05:48:00;13.30;1.00
21193;DHT22;10754;51.106;7.164;2023-04-01T05:50:26;12.80;1.00
21193;DHT22;10754;51.106;7.164;2023-04-01T05:52:52;13.10;1.00
21193;DHT22;10754;51.106;7.164;2023-04-01T05:55:18;12.90;1.00
21193;DHT22;10754;51.106;7.164;2023-04-01T05:57:45;13.10;1.00
21193;DHT22;10754;51.106;7.164;2023-04-01T06:00:11;13.00;1.00
21193;DHT22;10754;51.106;7.164;2023-04-01T06:02:37;13.00;1.00
21193;DHT22;10754;51.106;7.164;2023-04-01T06:05:13;12.90;1.00
21193;DHT22;10754;51.106;7.164;2023-04-01T06:07:40;12.90;1.00
21193;DHT22;10754;51.106;7.164;2023-04-01T06:10:18;12.80;1.00
21193;DHT22;10754;51.106;7.164;2023-04-01T06:13:05;13.20;1.00
21193;DHT22;10754;51.106;7.164;2023-04-01T06:15:50;13.10;1.00
21193;DHT22;10754;51.106;7.164;2023-04-01T06:21:37;12.70;1.00
21193;DHT22;10754;51.106;7.164;2023-04-01T06:27:28;12.70;1.00
21193;DHT22;10754;51.106;7.164;2023-04-01T06:32:49;12.70;1.00
21193;DHT22;10754;51.106;7.164;2023-04-01T06:49:41;13.00;1.00
21193;DHT22;10754;51.106;7.164;2023-04-01T06:52:26;13.10;1.00
21193;DHT22;10754;51.106;7.164;2023-04-01T06:57:49;13.10;1.00
21193;DHT22;10754;51.106;7.164;2023-04-01T07:02:53;13.20;1.00
21193;DHT22;10754;51.106;7.164;2023-04-01T07:05:20;13.10;1.00
21193;DHT22;10754;51.106;7.164;2023-04-01T07:07:51;13.10;1.00
21193;DHT22;10754;51.106;7.164;2023-04-01T07:10:45;13.10;1.00
21193;DHT22;10754;51.106;7.164;2023-04-01T07:13:34;13.20;1.00
21193;DHT22;10754;51.106;7.164;2023-04-01T07:16:23;13.20;1.00
21193;DHT22;10754;51.106;7.164;2023-04-01T07:19:03;13.10;1.00
21193;DHT22;10754;51.106;7.164;2023-04-01T07:21:45;13.00;1.00
21193;DHT22;10754;51.106;7.164;2023-04-01T07:24:20;13.30;1.00
21193;DHT22;10754;51.106;7.164;2023-04-01T07:26:55;13.20;1.00
21193;DHT22;10754;51.106;7.164;2023-04-01T07:29:22;13.20;1.00
21193;DHT22;10754;51.106;7.164;2023-04-01T07:37:17;13.00;1.00
21193;DHT22;10754;51.106;7.164;2023-04-01T07:39:55;13.10;1.00
21193;DHT22;10754;51.106;7.164;2023-04-01T07:43:05;13.00;1.00
21193;DHT22;10754;51.106;7.164;2023-04-01T07:45:53;13.10;1.00
21193;DHT22;10754;51.106;7.164;2023-04-01T07:48:39;13.00;1.00
21193;DHT22;10754;51.106;7.164;2023-04-01T07:51:27;13.10;1.00
21193;DHT22;10754;51.106;7.164;2023-04-01T07:54:09;12.90;1.00
21193;DHT22;10754;51.106;7.164;2023-04-01T08:00:01;13.00;1.00
21193;DHT22;10754;51.106;7.164;2023-04-01T08:02:54;12.80;1.00
21193;DHT22;10754;51.106;7.164;2023-04-01T08:16:20;13.10;1.00
21193;DHT22;10754;51.106;7.164;2023-04-01T08:21:39;13.20;1.00
21193;DHT22;10754;51.106;7.164;2023-04-01T08:24:16;13.30;1.00
21193;DHT22;10754;51.106;7.164;2023-04-01T08:26:47;13.00;1.00
21193;DHT22;10754;51.106;7.164;2023-04-01T08:29:21;12.90;1.00
21193;DHT22;10754;51.106;7.164;2023-04-01T08:32:05;12.90;1.00
21193;DHT22;10754;51.106;7.164;2023-04-01T08:34:38;12.90;1.00
21193;DHT22;10754;51.106;7.164;2023-04-01T08:37:21;12.80;1.00
21193;DHT22;10754;51.106;7.164;2023-04-01T08:39:53;13.20;1.00
21193;DHT22;10754;51.106;7.164;2023-04-01T08:42:43;13.30;1.00
21193;DHT22;10754;51.106;7.164;2023-04-01T08:45:23;13.20;1.00
21193;DHT22;10754;51.106;7.164;2023-04-01T08:56:23;13.10;1.00
21193;DHT22;10754;51.106;7.164;2023-04-01T09:07:27;12.70;1.00
21193;DHT22;10754;51.106;7.164;2023-04-01T09:18:45;12.70;1.00
21193;DHT22;10754;51.106;7.164;2023-04-01T09:21:31;12.70;1.00
21193;DHT22;10754;51.106;7.164;2023-04-01T09:24:28;12.70;1.00
21193;DHT22;10754;51.106;7.164;2023-04-01T09:27:27;12.80;1.00
21193;DHT22;10754;51.106;7.164;2023-04-01T09:35:48;13.00;1.00
21193;DHT22;10754;51.106;7.164;2023-04-01T09:38:29;13.00;1.00
21193;DHT22;10754;51.106;7.164;2023-04-01T09:41:12;13.10;1.00
21193;DHT22;10754;51.106;7.164;2023-04-01T09:44:18;13.00;1.00
21193;DHT22;10754;51.106;7.164;2023-04-01T10:03:48;13.20;1.00
21193;DHT22;10754;51.106;7.164;2023-04-01T10:15:00;13.10;1.00
21193;DHT22;10754;51.106;7.164;2023-04-01T10:20:50;13.10;1.00
21193;DHT22;10754;51.106;7.164;2023-04-01T10:23:44;13.00;1.00
21193;DHT22;10754;51.106;7.164;2023-04-01T10:26:32;12.90;1.00
21193;DHT22;10754;51.106;7.164;2023-04-01T10:29:26;12.90;1.00
21193;DHT22;10754;51.106;7.164;2023-04-01T10:32:21;12.90;1.00
21193;DHT22;10754;51.106;7.164;2023-04-01T10:38:12;12.90;1.00
21193;DHT22;10754;51.106;7.164;2023-04-01T10:46:46;13.10;1.00
21193;DHT22;10754;51.106;7.164;2023-04-01T10:54:45;12.90;1.00
21193;DHT22;10754;51.106;7.164;2023-04-01T10:57:35;13.20;1.00
21193;DHT22;10754;51.106;7.164;2023-04-01T11:00:25;13.30;1.00
21193;DHT22;10754;51.106;7.164;2023-04-01T11:14:21;13.50;1.00
21193;DHT22;10754;51.106;7.164;2023-04-01T11:20:33;13.40;1.00
21193;DHT22;10754;51.106;7.164;2023-04-01T11:26:07;13.40;1.00
21193;DHT22;10754;51.106;7.164;2023-04-01T11:29:00;13.50;1.00
21193;DHT22;10754;51.106;7.164;2023-04-01T11:31:45;13.60;1.00
21193;DHT22;10754;51.106;7.164;2023-04-01T11:34:32;13.40;1.00
21193;DHT22;10754;51.106;7.164;2023-04-01T11:43:11;13.20;1.00
21193;DHT22;10754;51.106;7.164;2023-04-01T11:46:11;13.30;1.00
21193;DHT22;10754;51.106;7.164;2023-04-01T11:48:57;13.30;1.00
21193;DHT22;10754;51.106;7.164;2023-04-01T11:54:41;13.60;1.00
21193;DHT22;10754;51.106;7.164;2023-04-01T12:03:02;13.30;1.00
21193;DHT22;10754;51.106;7.164;2023-04-01T12:08:27;13.30;1.00
21193;DHT22;10754;51.106;7.164;2023-04-01T12:11:09;13.10;1.00
21193;DHT22;10754;51.106;7.164;2023-04-01T12:13:59;13.10;1.00
21193;DHT22;10754;51.106;7.164;2023-04-01T12:22:04;13.20;1.00
21193;DHT22;10754;51.106;7.164;2023-04-01T12:24:58;13.30;1.00
21193;DHT22;10754;51.106;7.164;2023-04-01T12:36:00;13.50;1.00
21193;DHT22;10754;51.106;7.164;2023-04-01T12:41:29;13.50;1.00
21193;DHT22;10754;51.106;7.164;2023-04-01T12:49:58;13.50;1.00
21193;DHT22;10754;51.106;7.164;2023-04-01T13:01:19;13.50;1.00
21193;DHT22;10754;51.106;7.164;2023-04-01T13:04:12;13.40;1.00
21193;DHT22;10754;51.106;7.164;2023-04-01T13:17:58;13.30;1.00
21193;DHT22;10754;51.106;7.164;2023-04-01T13:20:53;13.30;1.00
21193;DHT22;10754;51.106;7.164;2023-04-01T13:26:27;13.20;1.00
21193;DHT22;10754;51.106;7.164;2023-04-01T13:29:11;13.20;1.00
21193;DHT22;10754;51.106;7.164;2023-04-01T13:39:53;13.20;1.00
21193;DHT22;10754;51.106;7.164;2023-04-01T13:42:33;13.20;1.00
21193;DHT22;10754;51.106;7.164;2023-04-01T13:45:19;13.30;1.00
21193;DHT22;10754;51.106;7.164;2023-04-01T13:48:24;13.30;1.00
21193;DHT22;10754;51.106;7.164;2023-04-01T14:01:59;13.40;1.00
21193;DHT22;10754;51.106;7.164;2023-04-01T14:07:56;13.40;1.00
21193;DHT22;10754;51.106;7.164;2023-04-01T14:13:17;13.50;1.00
21193;DHT22;10754;51.106;7.164;2023-04-01T14:16:13;13.50;1.00
21193;DHT22;10754;51.106;7.164;2023-04-01T14:21:23;13.50;1.00
21193;DHT22;10754;51.106;7.164;2023-04-01T14:29:16;13.30;1.00
21193;DHT22;10754;51.106;7.164;2023-04-01T14:37:58;13.50;1.00
21193;DHT22;10754;51.106;7.164;2023-04-01T14:40:22;13.50;1.00
21193;DHT22;10754;51.106;7.164;2023-04-01T14:43:16;13.60;1.00
21193;DHT22;10754;51.106;7.164;2023-04-01T14:46:13;13.50;1.00
21193;DHT22;10754;51.106;7.164;2023-04-01T14:51:31;13.40;1.00
21193;DHT22;10754;51.106;7.164;2023-04-01T14:54:02;13.40;1.00
21193;DHT22;10754;51.106;7.164;2023-04-01T14:56:46;13.40;1.00
21193;DHT22;10754;51.106;7.164;2023-04-01T15:10:17;13.80;1.00
21193;DHT22;10754;51.106;7.164;2023-04-01T15:13:05;13.80;1.00
21193;DHT22;10754;51.106;7.164;2023-04-01T15:24:26;13.70;1.00
21193;DHT22;10754;51.106;7.164;2023-04-01T15:27:19;13.60;1.00
21193;DHT22;10754;51.106;7.164;2023-04-01T15:32:39;13.50;1.00
21193;DHT22;10754;51.106;7.164;2023-04-01T15:38:06;13.60;1.00
21193;DHT22;10754;51.106;7.164;2023-04-01T15:43:12;13.70;1.00
21193;DHT22;10754;51.106;7.164;2023-04-01T15:45:51;13.70;1.00
21193;DHT22;10754;51.106;7.164;2023-04-01T15:48:52;13.70;1.00
21193;DHT22;10754;51.106;7.164;2023-04-01T15:54:23;14.00;1.00
21193;DHT22;10754;51.106;7.164;2023-04-01T16:02:47;13.90;1.00
21193;DHT22;10754;51.106;7.164;2023-04-01T16:05:49;13.90;1.00
21193;DHT22;10754;51.106;7.164;2023-04-01T16:08:40;13.80;1.00
21193;DHT22;10754;51.106;7.164;2023-04-01T16:11:19;13.80;1.00
21193;DHT22;10754;51.106;7.164;2023-04-01T16:17:08;13.80;1.00
21193;DHT22;10754;51.106;7.164;2023-04-01T16:20:18;13.50;1.00
21193;DHT22;10754;51.106;7.164;2023-04-01T16:22:52;13.50;1.00
21193;DHT22;10754;51.106;7.164;2023-04-01T16:30:50;13.40;1.00
21193;DHT22;10754;51.106;7.164;2023-04-01T16:33:38;13.40;1.00
21193;DHT22;10754;51.106;7.164;2023-04-01T16:36:26;13.50;1.00
21193;DHT22;10754;51.106;7.164;2023-04-01T16:39:15;13.50;1.00
21193;DHT22;10754;51.106;7.164;2023-04-01T16:41:51;13.50;1.00
21193;DHT22;10754;51.106;7.164;2023-04-01T16:44:26;13.40;1.00
21193;DHT22;10754;51.106;7.164;2023-04-01T16:46:54;13.40;1.00
21193;DHT22;10754;51.106;7.164;2023-04-01T16:49:28;13.30;1.00
21193;DHT22;10754;51.106;7.164;2023-04-01T16:52:12;13.30;1.00
21193;DHT22;10754;51.106;7.164;2023-04-01T16:57:37;13.10;1.00
21193;DHT22;10754;51.106;7.164;2023-04-01T17:00:37;13.20;1.00
21193;DHT22;10754;51.106;7.164;2023-04-01T17:03:13;13.20;1.00
21193;DHT22;10754;51.106;7.164;2023-04-01T17:16:49;13.20;1.00
21193;DHT22;10754;51.106;7.164;2023-04-01T17:19:33;13.10;1.00
21193;DHT22;10754;51.106;7.164;2023-04-01T17:22:21;12.90;1.00
21193;DHT22;10754;51.106;7.164;2023-04-01T17:30:41;12.90;1.00
21193;DHT22;10754;51.106;7.164;2023-04-01T17:36:21;12.90;1.00
21193;DHT22;10754;51.106;7.164;2023-04-01T17:39:14;12.90;1.00
21193;DHT22;10754;51.106;7.164;2023-04-01T17:49:33;12.80;1.00
21193;DHT22;10754;51.106;7.164;2023-04-01T17:57:51;12.80;1.00
21193;DHT22;10754;51.106;7.164;2023-04-01T18:00:26;12.80;1.00
21193;DHT22;10754;51.106;7.164;2023-04-01T18:06:42;12.80;1.00
21193;DHT22;10754;51.106;7.164;2023-04-01T18:22:47;12.80;1.00
21193;DHT22;10754;51.106;7.164;2023-04-01T18:25:21;12.90;1.00
21193;DHT22;10754;51.106;7.164;2023-04-01T18:28:08;12.80;1.00
21193;DHT22;10754;51.106;7.164;2023-04-01T18:30:35;12.90;1.00
21193;DHT22;10754;51.106;7.164;2023-04-01T18:33:03;12.90;1.00
21193;DHT22;10754;51.106;7.164;2023-04-01T18:38:36;12.90;1.00
21193;DHT22;10754;51.106;7.164;2023-04-01T18:44:29;12.80;1.00
21193;DHT22;10754;51.106;7.164;2023-04-01T18:52:33;12.80;1.00
21193;DHT22;10754;51.106;7.164;2023-04-01T19:00:25;12.70;1.00
21193;DHT22;10754;51.106;7.164;2023-04-01T19:03:28;12.80;1.00
21193;DHT22;10754;51.106;7.164;2023-04-01T19:06:00;12.80;1.00
21193;DHT22;10754;51.106;7.164;2023-04-01T19:08:34;12.70;1.00
21193;DHT22;10754;51.106;7.164;2023-04-01T19:11:30;12.70;1.00
21193;DHT22;10754;51.106;7.164;2023-04-01T19:14:24;12.70;1.00
21193;DHT22;10754;51.106;7.164;2023-04-01T19:17:17;12.70;1.00
21193;DHT22;10754;51.106;7.164;2023-04-01T19:22:57;12.70;1.00
21193;DHT22;10754;51.106;7.164;2023-04-01T19:36:43;12.80;1.00
21193;DHT22;10754;51.106;7.164;2023-04-01T19:39:36;12.80;1.00
21193;DHT22;10754;51.106;7.164;2023-04-01T19:42:40;12.80;1.00
21193;DHT22;10754;51.106;7.164;2023-04-01T19:45:22;12.60;1.00
21193;DHT22;10754;51.106;7.164;2023-04-01T19:50:43;12.40;1.00
21193;DHT22;10754;51.106;7.164;2023-04-01T19:53:40;12.50;1.00
21193;DHT22;10754;51.106;7.164;2023-04-01T19:58:54;12.50;1.00
21193;DHT22;10754;51.106;7.164;2023-04-01T20:01:44;12.60;1.00
21193;DHT22;10754;51.106;7.164;2023-04-01T20:04:17;12.60;1.00
21193;DHT22;10754;51.106;7.164;2023-04-01T20:12:35;12.60;1.00
21193;DHT22;10754;51.106;7.164;2023-04-01T20:15:21;12.50;1.00
21193;DHT22;10754;51.106;7.164;2023-04-01T20:17:48;12.60;1.00
21193;DHT22;10754;51.106;7.164;2023-04-01T20:20:24;12.50;1.00
21193;DHT22;10754;51.106;7.164;2023-04-01T20:23:08;12.50;1.00
21193;DHT22;10754;51.106;7.164;2023-04-01T20:25:51;12.40;1.00
21193;DHT22;10754;51.106;7.164;2023-04-01T20:34:07;12.50;1.00
21193;DHT22;10754;51.106;7.164;2023-04-01T20:39:39;12.60;1.00
21193;DHT22;10754;51.106;7.164;2023-04-01T20:42:52;12.50;1.00
21193;DHT22;10754;51.106;7.164;2023-04-01T20:45:19;12.50;1.00
21193;DHT22;10754;51.106;7.164;2023-04-01T20:51:03;12.70;1.00
21193;DHT22;10754;51.106;7.164;2023-04-01T20:53:43;12.50;1.00
21193;DHT22;10754;51.106;7.164;2023-04-01T20:56:21;12.40;1.00
21193;DHT22;10754;51.106;7.164;2023-04-01T20:59:12;12.40;1.00
21193;DHT22;10754;51.106;7.164;2023-04-01T21:02:12;12.40;1.00
21193;DHT22;10754;51.106;7.164;2023-04-01T21:05:04;12.40;1.00
21193;DHT22;10754;51.106;7.164;2023-04-01T21:07:50;12.50;1.00
21193;DHT22;10754;51.106;7.164;2023-04-01T21:27:13;12.60;1.00
21193;DHT22;10754;51.106;7.164;2023-04-01T21:30:52;12.50;1.00
21193;DHT22;10754;51.106;7.164;2023-04-01T21:33:07;12.50;1.00
21193;DHT22;10754;51.106;7.164;2023-04-01T21:35:42;12.50;1.00
21193;DHT22;10754;51.106;7.164;2023-04-01T21:38:36;12.50;1.00
21193;DHT22;10754;51.106;7.164;2023-04-01T21:41:34;12.50;1.00
21193;DHT22;10754;51.106;7.164;2023-04-01T21:50:07;12.60;1.00
21193;DHT22;10754;51.106;7.164;2023-04-01T21:52:56;12.70;1.00
21193;DHT22;10754;51.106;7.164;2023-04-01T22:06:53;12.40;1.00
21193;DHT22;10754;51.106;7.164;2023-04-01T22:09:41;12.30;1.00
21193;DHT22;10754;51.106;7.164;2023-04-01T22:12:15;12.30;1.00
21193;DHT22;10754;51.106;7.164;2023-04-01T22:15:42;12.30;1.00
21193;DHT22;10754;51.106;7.164;2023-04-01T22:18:13;12.30;1.00
21193;DHT22;10754;51.106;7.164;2023-04-01T22:20:49;12.30;1.00
21193;DHT22;10754;51.106;7.164;2023-04-01T22:23:36;12.40;1.00
21193;DHT22;10754;51.106;7.164;2023-04-01T22:29:06;12.40;1.00
21193;DHT22;10754;51.106;7.164;2023-04-01T22:31:54;12.40;1.00
21193;DHT22;10754;51.106;7.164;2023-04-01T22:37:29;12.40;1.00
21193;DHT22;10754;51.106;7.164;2023-04-01T22:42:52;12.40;1.00
21193;DHT22;10754;51.106;7.164;2023-04-01T22:45:29;12.40;1.00
21193;DHT22;10754;51.106;7.164;2023-04-01T22:48:17;12.40;1.00
21193;DHT22;10754;51.106;7.164;2023-04-01T22:51:00;12.40;1.00
21193;DHT22;10754;51.106;7.164;2023-04-01T22:56:38;12.50;1.00
21193;DHT22;10754;51.106;7.164;2023-04-01T22:59:21;12.40;1.00
21193;DHT22;10754;51.106;7.164;2023-04-01T23:01:57;12.40;1.00
21193;DHT22;10754;51.106;7.164;2023-04-01T23:04:31;12.40;1.00
21193;DHT22;10754;51.106;7.164;2023-04-01T23:07:00;12.40;1.00
21193;DHT22;10754;51.106;7.164;2023-04-01T23:09:33;12.40;1.00
21193;DHT22;10754;51.106;7.164;2023-04-01T23:12:03;12.40;1.00
21193;DHT22;10754;51.106;7.164;2023-04-01T23:14:51;12.40;1.00
21193;DHT22;10754;51.106;7.164;2023-04-01T23:25:17;12.40;1.00
21193;DHT22;10754;51.106;7.164;2023-04-01T23:33:20;12.50;1.00
21193;DHT22;10754;51.106;7.164;2023-04-01T23:35:50;12.50;1.00
21193;DHT22;10754;51.106;7.164;2023-04-01T23:38:18;12.50;1.00
21193;DHT22;10754;51.106;7.164;2023-04-01T23:40:47;12.50;1.00
21193;DHT22;10754;51.106;7.164;2023-04-01T23:43:36;12.50;1.00
21193;DHT22;10754;51.106;7.164;2023-04-01T23:46:03;12.60;1.00
21193;DHT22;10754;51.106;7.164;2023-04-01T23:48:44;12.60;1.00
21193;DHT22;10754;51.106;7.164;2023-04-01T23:51:18;12.60;1.00
21193;DHT22;10754;51.106;7.164;2023-04-01T23:53:46;12.60;1.00
21193;DHT22;10754;51.106;7.164;2023-04-01T23:56:15;12.60;1.00
21193;DHT22;10754;51.106;7.164;2023-04-01T23:58:44;12.60;1.00
